sensor_id;sensor_type;location;lat;lon;timestamp;temperature;humidity
27544;DHT22;17996;51.056;3.656;2023-03-14T00:01:17;12.30;99.90
27544;DHT22;17996;51.056;3.656;2023-03-14T00:03:43;12.30;99.90
27544;DHT22;17996;51.056;3.656;2023-03-14T00:06:10;12.20;99.90
27544;DHT22;17996;51.056;3.656;2023-03-14T00:08:36;12.20;99.90
27544;DHT22;17996;51.056;3.656;2023-03-14T00:11:07;12.10;99.90
27544;DHT22;17996;51.056;3.656;2023-03-14T00:13:32;12.10;99.90
27544;DHT22;17996;51.056;3.656;2023-03-14T00:16:06;12.10;99.90
27544;DHT22;17996;51.056;3.656;2023-03-14T00:18:33;12.10;99.90
27544;DHT22;17996;51.056;3.656;2023-03-14T00:21:00;12.20;99.90
27544;DHT22;17996;51.056;3.656;2023-03-14T00:23:27;12.20;99.90
27544;DHT22;17996;51.056;3.656;2023-03-14T00:25:54;12.20;99.90
27544;DHT22;17996;51.056;3.656;2023-03-14T00:28:23;12.20;99.90
27544;DHT22;17996;51.056;3.656;2023-03-14T00:30:48;12.20;99.90
27544;DHT22;17996;51.056;3.656;2023-03-14T00:33:14;12.10;99.90
27544;DHT22;17996;51.056;3.656;2023-03-14T00:35:40;12.40;99.90
27544;DHT22;17996;51.056;3.656;2023-03-14T00:38:05;12.20;99.90
27544;DHT22;17996;51.056;3.656;2023-03-14T00:40:31;12.30;99.90
27544;DHT22;17996;51.056;3.656;2023-03-14T00:42:57;12.30;99.90
27544;DHT22;17996;51.056;3.656;2023-03-14T00:45:22;12.30;99.90
27544;DHT22;17996;51.056;3.656;2023-03-14T00:47:48;12.30;99.90
27544;DHT22;17996;51.056;3.656;2023-03-14T00:50:14;12.20;99.90
27544;DHT22;17996;51.056;3.656;2023-03-14T00:52:40;12.20;99.90
27544;DHT22;17996;51.056;3.656;2023-03-14T00:55:06;12.10;99.90
27544;DHT22;17996;51.056;3.656;2023-03-14T00:57:31;12.10;99.90
27544;DHT22;17996;51.056;3.656;2023-03-14T00:59:57;12.10;99.90
27544;DHT22;17996;51.056;3.656;2023-03-14T01:02:23;12.10;99.90
27544;DHT22;17996;51.056;3.656;2023-03-14T01:04:49;12.10;99.90
27544;DHT22;17996;51.056;3.656;2023-03-14T01:07:16;12.10;99.90
27544;DHT22;17996;51.056;3.656;2023-03-14T01:09:42;12.20;99.90
27544;DHT22;17996;51.056;3.656;2023-03-14T01:12:07;12.20;99.90
27544;DHT22;17996;51.056;3.656;2023-03-14T01:14:33;12.20;99.90
27544;DHT22;17996;51.056;3.656;2023-03-14T01:16:59;12.20;99.90
27544;DHT22;17996;51.056;3.656;2023-03-14T01:19:29;12.20;99.90
27544;DHT22;17996;51.056;3.656;2023-03-14T01:21:55;12.10;99.90
27544;DHT22;17996;51.056;3.656;2023-03-14T01:24:20;12.10;99.90
27544;DHT22;17996;51.056;3.656;2023-03-14T01:26:46;12.20;99.90
27544;DHT22;17996;51.056;3.656;2023-03-14T01:29:12;12.20;99.90
27544;DHT22;17996;51.056;3.656;2023-03-14T01:31:38;12.20;99.90
27544;DHT22;17996;51.056;3.656;2023-03-14T01:34:03;12.20;99.90
27544;DHT22;17996;51.056;3.656;2023-03-14T01:36:29;12.20;99.90
27544;DHT22;17996;51.056;3.656;2023-03-14T01:38:55;12.20;99.90
27544;DHT22;17996;51.056;3.656;2023-03-14T01:41:23;12.20;99.90
27544;DHT22;17996;51.056;3.656;2023-03-14T01:43:50;12.20;99.90
27544;DHT22;17996;51.056;3.656;2023-03-14T01:48:55;12.20;99.90
27544;DHT22;17996;51.056;3.656;2023-03-14T01:51:46;12.20;99.90
27544;DHT22;17996;51.056;3.656;2023-03-14T01:57:17;12.30;99.90
27544;DHT22;17996;51.056;3.656;2023-03-14T01:59:49;12.30;99.90
27544;DHT22;17996;51.056;3.656;2023-03-14T02:02:17;12.30;99.90
27544;DHT22;17996;51.056;3.656;2023-03-14T02:04:43;12.30;99.90
27544;DHT22;17996;51.056;3.656;2023-03-14T02:07:31;12.30;99.90
27544;DHT22;17996;51.056;3.656;2023-03-14T02:09:59;12.40;99.90
27544;DHT22;17996;51.056;3.656;2023-03-14T02:12:27;12.40;99.90
27544;DHT22;17996;51.056;3.656;2023-03-14T02:14:53;12.40;99.90
27544;DHT22;17996;51.056;3.656;2023-03-14T02:17:20;12.40;99.90
27544;DHT22;17996;51.056;3.656;2023-03-14T02:22:14;12.40;99.90
27544;DHT22;17996;51.056;3.656;2023-03-14T02:24:49;12.40;99.90
27544;DHT22;17996;51.056;3.656;2023-03-14T02:27:22;12.40;99.90
27544;DHT22;17996;51.056;3.656;2023-03-14T02:30:00;12.40;99.90
27544;DHT22;17996;51.056;3.656;2023-03-14T02:32:27;12.30;99.90
27544;DHT22;17996;51.056;3.656;2023-03-14T02:34:57;12.30;99.90
27544;DHT22;17996;51.056;3.656;2023-03-14T02:37:30;12.30;99.90
27544;DHT22;17996;51.056;3.656;2023-03-14T02:39:58;12.20;99.90
27544;DHT22;17996;51.056;3.656;2023-03-14T02:42:24;12.20;99.90
27544;DHT22;17996;51.056;3.656;2023-03-14T02:47:39;12.20;99.90
27544;DHT22;17996;51.056;3.656;2023-03-14T02:50:13;12.10;99.90
27544;DHT22;17996;51.056;3.656;2023-03-14T02:52:41;12.10;99.90
27544;DHT22;17996;51.056;3.656;2023-03-14T02:55:07;12.00;99.90
27544;DHT22;17996;51.056;3.656;2023-03-14T02:57:33;12.00;99.90
27544;DHT22;17996;51.056;3.656;2023-03-14T02:59:59;11.90;99.90
27544;DHT22;17996;51.056;3.656;2023-03-14T03:02:26;11.80;99.90
27544;DHT22;17996;51.056;3.656;2023-03-14T03:04:51;11.80;99.90
27544;DHT22;17996;51.056;3.656;2023-03-14T03:07:17;11.80;99.90
27544;DHT22;17996;51.056;3.656;2023-03-14T03:09:45;11.80;99.90
27544;DHT22;17996;51.056;3.656;2023-03-14T03:12:10;11.80;99.90
27544;DHT22;17996;51.056;3.656;2023-03-14T03:14:36;11.80;99.90
27544;DHT22;17996;51.056;3.656;2023-03-14T03:17:04;11.80;99.90
27544;DHT22;17996;51.056;3.656;2023-03-14T03:19:30;11.80;99.90
27544;DHT22;17996;51.056;3.656;2023-03-14T03:21:56;11.80;99.90
27544;DHT22;17996;51.056;3.656;2023-03-14T03:24:23;11.80;99.90
27544;DHT22;17996;51.056;3.656;2023-03-14T03:26:49;11.80;99.90
27544;DHT22;17996;51.056;3.656;2023-03-14T03:29:14;11.80;99.90
27544;DHT22;17996;51.056;3.656;2023-03-14T03:31:40;11.80;99.90
27544;DHT22;17996;51.056;3.656;2023-03-14T03:34:06;11.90;99.90
27544;DHT22;17996;51.056;3.656;2023-03-14T03:36:32;11.90;99.90
27544;DHT22;17996;51.056;3.656;2023-03-14T03:38:58;11.90;99.90
27544;DHT22;17996;51.056;3.656;2023-03-14T03:41:24;12.00;99.90
27544;DHT22;17996;51.056;3.656;2023-03-14T03:43:50;12.00;99.90
27544;DHT22;17996;51.056;3.656;2023-03-14T03:46:15;12.00;99.90
27544;DHT22;17996;51.056;3.656;2023-03-14T03:48:41;12.10;99.90
27544;DHT22;17996;51.056;3.656;2023-03-14T03:51:07;12.10;99.90
27544;DHT22;17996;51.056;3.656;2023-03-14T03:53:33;12.10;99.90
27544;DHT22;17996;51.056;3.656;2023-03-14T03:55:58;12.10;99.90
27544;DHT22;17996;51.056;3.656;2023-03-14T03:58:24;12.10;99.90
27544;DHT22;17996;51.056;3.656;2023-03-14T04:00:49;12.10;99.90
27544;DHT22;17996;51.056;3.656;2023-03-14T04:03:15;12.10;99.90
27544;DHT22;17996;51.056;3.656;2023-03-14T04:05:41;12.10;99.90
27544;DHT22;17996;51.056;3.656;2023-03-14T04:08:07;12.10;99.90
27544;DHT22;17996;51.056;3.656;2023-03-14T04:10:36;12.20;99.90
27544;DHT22;17996;51.056;3.656;2023-03-14T04:13:02;12.10;99.90
27544;DHT22;17996;51.056;3.656;2023-03-14T04:15:27;12.10;99.90
27544;DHT22;17996;51.056;3.656;2023-03-14T04:17:57;12.00;99.90
27544;DHT22;17996;51.056;3.656;2023-03-14T04:20:23;12.00;99.90
27544;DHT22;17996;51.056;3.656;2023-03-14T04:22:49;12.00;99.90
27544;DHT22;17996;51.056;3.656;2023-03-14T04:25:14;12.00;99.90
27544;DHT22;17996;51.056;3.656;2023-03-14T04:27:42;12.00;99.90
27544;DHT22;17996;51.056;3.656;2023-03-14T04:30:08;12.00;99.90
27544;DHT22;17996;51.056;3.656;2023-03-14T04:32:34;12.00;99.90
27544;DHT22;17996;51.056;3.656;2023-03-14T04:35:00;12.10;99.90
27544;DHT22;17996;51.056;3.656;2023-03-14T04:37:25;12.10;99.90
27544;DHT22;17996;51.056;3.656;2023-03-14T04:39:51;12.10;99.90
27544;DHT22;17996;51.056;3.656;2023-03-14T04:42:17;12.10;99.90
27544;DHT22;17996;51.056;3.656;2023-03-14T04:44:43;12.10;99.90
27544;DHT22;17996;51.056;3.656;2023-03-14T04:47:08;12.00;99.90
27544;DHT22;17996;51.056;3.656;2023-03-14T04:49:34;12.00;99.90
27544;DHT22;17996;51.056;3.656;2023-03-14T04:52:00;12.00;99.90
27544;DHT22;17996;51.056;3.656;2023-03-14T04:54:25;12.10;99.90
27544;DHT22;17996;51.056;3.656;2023-03-14T04:56:51;12.10;99.90
27544;DHT22;17996;51.056;3.656;2023-03-14T04:59:18;12.00;99.90
27544;DHT22;17996;51.056;3.656;2023-03-14T05:01:43;12.10;99.90
27544;DHT22;17996;51.056;3.656;2023-03-14T05:04:09;12.00;99.90
27544;DHT22;17996;51.056;3.656;2023-03-14T05:06:35;12.00;99.90
27544;DHT22;17996;51.056;3.656;2023-03-14T05:09:00;12.10;99.90
27544;DHT22;17996;51.056;3.656;2023-03-14T05:11:26;12.00;99.90
27544;DHT22;17996;51.056;3.656;2023-03-14T05:13:52;12.00;99.90
27544;DHT22;17996;51.056;3.656;2023-03-14T05:16:17;12.00;99.90
27544;DHT22;17996;51.056;3.656;2023-03-14T05:18:43;11.90;99.90
27544;DHT22;17996;51.056;3.656;2023-03-14T05:21:09;11.80;99.90
27544;DHT22;17996;51.056;3.656;2023-03-14T05:23:34;11.80;99.90
27544;DHT22;17996;51.056;3.656;2023-03-14T05:26:00;11.80;99.90
27544;DHT22;17996;51.056;3.656;2023-03-14T05:28:26;11.70;99.90
27544;DHT22;17996;51.056;3.656;2023-03-14T05:30:52;11.70;99.90
27544;DHT22;17996;51.056;3.656;2023-03-14T05:33:17;11.70;99.90
27544;DHT22;17996;51.056;3.656;2023-03-14T05:35:43;11.70;99.90
27544;DHT22;17996;51.056;3.656;2023-03-14T05:38:09;11.60;99.90
27544;DHT22;17996;51.056;3.656;2023-03-14T05:40:35;11.60;99.90
27544;DHT22;17996;51.056;3.656;2023-03-14T05:43:00;11.10;99.90
27544;DHT22;17996;51.056;3.656;2023-03-14T05:45:26;10.70;99.90
27544;DHT22;17996;51.056;3.656;2023-03-14T05:47:52;10.40;99.90
27544;DHT22;17996;51.056;3.656;2023-03-14T05:50:17;10.20;99.90
27544;DHT22;17996;51.056;3.656;2023-03-14T05:52:43;9.90;99.90
27544;DHT22;17996;51.056;3.656;2023-03-14T05:55:09;9.80;99.90
27544;DHT22;17996;51.056;3.656;2023-03-14T05:57:34;9.80;99.90
27544;DHT22;17996;51.056;3.656;2023-03-14T06:00:00;9.70;99.90
27544;DHT22;17996;51.056;3.656;2023-03-14T06:02:26;9.50;99.90
27544;DHT22;17996;51.056;3.656;2023-03-14T06:04:52;9.40;99.90
27544;DHT22;17996;51.056;3.656;2023-03-14T06:07:18;9.20;99.90
27544;DHT22;17996;51.056;3.656;2023-03-14T06:09:44;9.00;99.90
27544;DHT22;17996;51.056;3.656;2023-03-14T06:12:10;8.90;99.90
27544;DHT22;17996;51.056;3.656;2023-03-14T06:14:36;8.90;99.90
27544;DHT22;17996;51.056;3.656;2023-03-14T06:17:02;8.90;99.90
27544;DHT22;17996;51.056;3.656;2023-03-14T06:19:27;8.90;99.90
27544;DHT22;17996;51.056;3.656;2023-03-14T06:21:53;8.80;99.90
27544;DHT22;17996;51.056;3.656;2023-03-14T06:24:20;8.80;99.90
27544;DHT22;17996;51.056;3.656;2023-03-14T06:26:46;8.90;99.90
27544;DHT22;17996;51.056;3.656;2023-03-14T06:29:13;8.80;99.90
27544;DHT22;17996;51.056;3.656;2023-03-14T06:31:39;8.90;99.90
27544;DHT22;17996;51.056;3.656;2023-03-14T06:34:06;8.90;99.90
27544;DHT22;17996;51.056;3.656;2023-03-14T06:36:32;8.90;99.90
27544;DHT22;17996;51.056;3.656;2023-03-14T06:38:59;8.90;99.90
27544;DHT22;17996;51.056;3.656;2023-03-14T06:41:25;8.90;99.90
27544;DHT22;17996;51.056;3.656;2023-03-14T06:43:52;9.00;99.90
27544;DHT22;17996;51.056;3.656;2023-03-14T06:46:19;9.00;99.90
27544;DHT22;17996;51.056;3.656;2023-03-14T06:48:45;9.00;99.90
27544;DHT22;17996;51.056;3.656;2023-03-14T06:51:10;9.00;99.90
27544;DHT22;17996;51.056;3.656;2023-03-14T06:53:36;8.90;99.90
27544;DHT22;17996;51.056;3.656;2023-03-14T06:56:03;8.90;99.90
27544;DHT22;17996;51.056;3.656;2023-03-14T06:58:29;8.90;99.90
27544;DHT22;17996;51.056;3.656;2023-03-14T07:00:55;8.80;99.90
27544;DHT22;17996;51.056;3.656;2023-03-14T07:03:28;8.80;99.90
27544;DHT22;17996;51.056;3.656;2023-03-14T07:05:54;8.80;99.90
27544;DHT22;17996;51.056;3.656;2023-03-14T07:08:20;8.70;99.90
27544;DHT22;17996;51.056;3.656;2023-03-14T07:10:47;8.70;99.90
27544;DHT22;17996;51.056;3.656;2023-03-14T07:13:13;8.60;99.90
27544;DHT22;17996;51.056;3.656;2023-03-14T07:15:38;8.60;99.90
27544;DHT22;17996;51.056;3.656;2023-03-14T07:18:04;8.60;99.90
27544;DHT22;17996;51.056;3.656;2023-03-14T07:20:30;8.50;99.90
27544;DHT22;17996;51.056;3.656;2023-03-14T07:22:57;8.50;99.90
27544;DHT22;17996;51.056;3.656;2023-03-14T07:25:25;8.50;99.90
27544;DHT22;17996;51.056;3.656;2023-03-14T07:27:52;8.60;99.90
27544;DHT22;17996;51.056;3.656;2023-03-14T07:30:19;8.60;99.90
27544;DHT22;17996;51.056;3.656;2023-03-14T07:32:45;8.60;99.90
27544;DHT22;17996;51.056;3.656;2023-03-14T07:35:11;8.60;99.90
27544;DHT22;17996;51.056;3.656;2023-03-14T07:37:37;8.60;99.90
27544;DHT22;17996;51.056;3.656;2023-03-14T07:40:03;8.50;99.90
27544;DHT22;17996;51.056;3.656;2023-03-14T07:42:32;8.40;99.90
27544;DHT22;17996;51.056;3.656;2023-03-14T07:44:57;8.40;99.90
27544;DHT22;17996;51.056;3.656;2023-03-14T07:47:23;8.20;99.90
27544;DHT22;17996;51.056;3.656;2023-03-14T07:49:49;8.10;99.90
27544;DHT22;17996;51.056;3.656;2023-03-14T07:52:14;8.10;99.90
27544;DHT22;17996;51.056;3.656;2023-03-14T07:54:40;8.10;99.90
27544;DHT22;17996;51.056;3.656;2023-03-14T07:57:06;8.10;99.90
27544;DHT22;17996;51.056;3.656;2023-03-14T07:59:31;8.10;99.90
27544;DHT22;17996;51.056;3.656;2023-03-14T08:01:57;8.00;99.90
27544;DHT22;17996;51.056;3.656;2023-03-14T08:04:24;8.00;99.90
27544;DHT22;17996;51.056;3.656;2023-03-14T08:06:49;8.00;99.90
27544;DHT22;17996;51.056;3.656;2023-03-14T08:09:15;8.00;99.90
27544;DHT22;17996;51.056;3.656;2023-03-14T08:11:41;7.90;99.90
27544;DHT22;17996;51.056;3.656;2023-03-14T08:14:06;7.90;99.90
27544;DHT22;17996;51.056;3.656;2023-03-14T08:16:32;7.90;99.90
27544;DHT22;17996;51.056;3.656;2023-03-14T08:18:58;7.90;99.90
27544;DHT22;17996;51.056;3.656;2023-03-14T08:21:23;7.90;99.90
27544;DHT22;17996;51.056;3.656;2023-03-14T08:23:49;7.90;99.90
27544;DHT22;17996;51.056;3.656;2023-03-14T08:26:15;7.90;99.90
27544;DHT22;17996;51.056;3.656;2023-03-14T08:28:40;7.90;99.90
27544;DHT22;17996;51.056;3.656;2023-03-14T08:31:06;7.90;99.90
27544;DHT22;17996;51.056;3.656;2023-03-14T08:33:32;7.90;99.90
27544;DHT22;17996;51.056;3.656;2023-03-14T08:35:59;7.80;99.90
27544;DHT22;17996;51.056;3.656;2023-03-14T08:38:25;7.90;99.90
27544;DHT22;17996;51.056;3.656;2023-03-14T08:40:58;8.00;99.90
27544;DHT22;17996;51.056;3.656;2023-03-14T08:43:25;8.00;99.90
27544;DHT22;17996;51.056;3.656;2023-03-14T08:45:50;8.00;99.90
27544;DHT22;17996;51.056;3.656;2023-03-14T08:48:16;8.00;99.90
27544;DHT22;17996;51.056;3.656;2023-03-14T08:50:42;8.00;99.90
27544;DHT22;17996;51.056;3.656;2023-03-14T08:53:08;8.00;99.90
27544;DHT22;17996;51.056;3.656;2023-03-14T08:55:34;8.00;99.90
27544;DHT22;17996;51.056;3.656;2023-03-14T08:57:59;8.10;99.90
27544;DHT22;17996;51.056;3.656;2023-03-14T09:00:25;8.10;99.90
27544;DHT22;17996;51.056;3.656;2023-03-14T09:02:51;8.10;99.90
27544;DHT22;17996;51.056;3.656;2023-03-14T09:05:16;8.10;99.90
27544;DHT22;17996;51.056;3.656;2023-03-14T09:07:42;8.10;99.90
27544;DHT22;17996;51.056;3.656;2023-03-14T09:10:09;8.00;99.90
27544;DHT22;17996;51.056;3.656;2023-03-14T09:12:35;7.90;99.90
27544;DHT22;17996;51.056;3.656;2023-03-14T09:15:01;7.90;99.90
27544;DHT22;17996;51.056;3.656;2023-03-14T09:17:27;7.90;99.90
27544;DHT22;17996;51.056;3.656;2023-03-14T09:19:52;7.90;99.90
27544;DHT22;17996;51.056;3.656;2023-03-14T09:22:18;7.80;99.90
27544;DHT22;17996;51.056;3.656;2023-03-14T09:24:44;7.90;99.90
27544;DHT22;17996;51.056;3.656;2023-03-14T09:27:09;7.90;99.90
27544;DHT22;17996;51.056;3.656;2023-03-14T09:29:35;7.90;99.90
27544;DHT22;17996;51.056;3.656;2023-03-14T09:32:01;7.90;99.90
27544;DHT22;17996;51.056;3.656;2023-03-14T09:34:26;7.90;99.90
27544;DHT22;17996;51.056;3.656;2023-03-14T09:36:52;7.80;99.90
27544;DHT22;17996;51.056;3.656;2023-03-14T09:39:18;7.70;99.90
27544;DHT22;17996;51.056;3.656;2023-03-14T09:41:47;7.70;99.90
27544;DHT22;17996;51.056;3.656;2023-03-14T09:44:24;7.60;99.90
27544;DHT22;17996;51.056;3.656;2023-03-14T09:46:53;7.50;99.90
27544;DHT22;17996;51.056;3.656;2023-03-14T09:49:24;7.50;99.90
27544;DHT22;17996;51.056;3.656;2023-03-14T09:51:52;7.50;99.90
27544;DHT22;17996;51.056;3.656;2023-03-14T09:54:42;7.50;99.90
27544;DHT22;17996;51.056;3.656;2023-03-14T09:57:14;7.50;99.90
27544;DHT22;17996;51.056;3.656;2023-03-14T09:59:44;7.50;99.90
27544;DHT22;17996;51.056;3.656;2023-03-14T10:02:31;7.50;99.90
27544;DHT22;17996;51.056;3.656;2023-03-14T10:04:59;7.40;99.90
27544;DHT22;17996;51.056;3.656;2023-03-14T10:07:29;7.40;99.90
27544;DHT22;17996;51.056;3.656;2023-03-14T10:09:55;7.40;99.90
27544;DHT22;17996;51.056;3.656;2023-03-14T10:12:31;7.40;99.90
27544;DHT22;17996;51.056;3.656;2023-03-14T10:15:04;7.40;99.90
27544;DHT22;17996;51.056;3.656;2023-03-14T10:17:41;7.40;99.90
27544;DHT22;17996;51.056;3.656;2023-03-14T10:20:32;7.40;99.90
27544;DHT22;17996;51.056;3.656;2023-03-14T10:25:42;7.50;99.90
27544;DHT22;17996;51.056;3.656;2023-03-14T10:28:27;7.40;99.90
27544;DHT22;17996;51.056;3.656;2023-03-14T10:30:55;7.50;99.90
27544;DHT22;17996;51.056;3.656;2023-03-14T10:33:32;7.50;99.90
27544;DHT22;17996;51.056;3.656;2023-03-14T10:36:21;7.50;99.90
27544;DHT22;17996;51.056;3.656;2023-03-14T10:38:48;7.40;99.90
27544;DHT22;17996;51.056;3.656;2023-03-14T10:41:23;7.30;99.90
27544;DHT22;17996;51.056;3.656;2023-03-14T10:43:52;7.30;99.90
27544;DHT22;17996;51.056;3.656;2023-03-14T10:46:20;7.40;99.90
27544;DHT22;17996;51.056;3.656;2023-03-14T10:48:46;7.40;99.90
27544;DHT22;17996;51.056;3.656;2023-03-14T10:51:25;7.40;99.90
27544;DHT22;17996;51.056;3.656;2023-03-14T10:53:57;7.40;99.90
27544;DHT22;17996;51.056;3.656;2023-03-14T10:56:25;7.40;99.90
27544;DHT22;17996;51.056;3.656;2023-03-14T10:58:57;7.50;99.90
27544;DHT22;17996;51.056;3.656;2023-03-14T11:01:46;7.60;99.90
27544;DHT22;17996;51.056;3.656;2023-03-14T11:07:09;7.80;99.90
27544;DHT22;17996;51.056;3.656;2023-03-14T11:09:44;7.90;99.90
27544;DHT22;17996;51.056;3.656;2023-03-14T11:14:51;8.20;99.90
27544;DHT22;17996;51.056;3.656;2023-03-14T11:17:34;8.30;99.90
27544;DHT22;17996;51.056;3.656;2023-03-14T11:20:04;8.40;99.90
27544;DHT22;17996;51.056;3.656;2023-03-14T11:22:55;8.60;99.90
27544;DHT22;17996;51.056;3.656;2023-03-14T11:26:17;8.60;99.90
27544;DHT22;17996;51.056;3.656;2023-03-14T11:28:23;8.60;99.90
27544;DHT22;17996;51.056;3.656;2023-03-14T11:30:54;8.70;99.90
27544;DHT22;17996;51.056;3.656;2023-03-14T11:33:36;8.60;99.90
27544;DHT22;17996;51.056;3.656;2023-03-14T11:36:08;8.60;99.90
27544;DHT22;17996;51.056;3.656;2023-03-14T11:38:43;8.70;99.90
27544;DHT22;17996;51.056;3.656;2023-03-14T11:41:20;8.70;99.90
27544;DHT22;17996;51.056;3.656;2023-03-14T11:43:53;8.80;99.90
27544;DHT22;17996;51.056;3.656;2023-03-14T11:46:32;8.40;99.90
27544;DHT22;17996;51.056;3.656;2023-03-14T11:51:46;7.50;99.90
27544;DHT22;17996;51.056;3.656;2023-03-14T11:57:04;7.40;99.90
27544;DHT22;17996;51.056;3.656;2023-03-14T12:02:33;7.30;99.90
27544;DHT22;17996;51.056;3.656;2023-03-14T12:10:51;7.50;99.90
27544;DHT22;17996;51.056;3.656;2023-03-14T12:13:18;7.40;99.90
27544;DHT22;17996;51.056;3.656;2023-03-14T12:15:59;7.30;99.90
27544;DHT22;17996;51.056;3.656;2023-03-14T12:18:28;7.00;99.90
27544;DHT22;17996;51.056;3.656;2023-03-14T12:21:17;6.90;99.90
27544;DHT22;17996;51.056;3.656;2023-03-14T12:23:48;6.90;99.90
27544;DHT22;17996;51.056;3.656;2023-03-14T12:26:26;6.90;99.90
27544;DHT22;17996;51.056;3.656;2023-03-14T12:39:43;7.00;99.90
27544;DHT22;17996;51.056;3.656;2023-03-14T12:47:43;6.60;99.90
27544;DHT22;17996;51.056;3.656;2023-03-14T12:50:20;6.30;99.90
27544;DHT22;17996;51.056;3.656;2023-03-14T12:58:30;6.20;99.90
27544;DHT22;17996;51.056;3.656;2023-03-14T13:01:00;6.00;99.90
27544;DHT22;17996;51.056;3.656;2023-03-14T13:03:37;5.80;99.90
27544;DHT22;17996;51.056;3.656;2023-03-14T13:06:05;5.70;99.90
27544;DHT22;17996;51.056;3.656;2023-03-14T13:08:44;5.80;99.90
27544;DHT22;17996;51.056;3.656;2023-03-14T13:11:16;5.90;99.90
27544;DHT22;17996;51.056;3.656;2023-03-14T13:13:57;6.00;99.90
27544;DHT22;17996;51.056;3.656;2023-03-14T13:16:23;6.30;99.90
27544;DHT22;17996;51.056;3.656;2023-03-14T13:19:11;6.30;99.90
27544;DHT22;17996;51.056;3.656;2023-03-14T13:21:37;6.30;99.90
27544;DHT22;17996;51.056;3.656;2023-03-14T13:24:06;6.30;99.90
27544;DHT22;17996;51.056;3.656;2023-03-14T13:26:39;6.20;99.90
27544;DHT22;17996;51.056;3.656;2023-03-14T13:29:37;6.20;99.90
27544;DHT22;17996;51.056;3.656;2023-03-14T13:32:20;6.20;99.90
27544;DHT22;17996;51.056;3.656;2023-03-14T13:34:47;6.20;99.90
27544;DHT22;17996;51.056;3.656;2023-03-14T13:37:19;6.30;99.90
27544;DHT22;17996;51.056;3.656;2023-03-14T13:39:56;6.30;99.90
27544;DHT22;17996;51.056;3.656;2023-03-14T13:42:27;6.30;99.90
27544;DHT22;17996;51.056;3.656;2023-03-14T13:44:55;6.30;99.90
27544;DHT22;17996;51.056;3.656;2023-03-14T13:47:24;6.40;99.90
27544;DHT22;17996;51.056;3.656;2023-03-14T13:49:50;6.30;99.90
27544;DHT22;17996;51.056;3.656;2023-03-14T13:54:55;5.80;99.90
27544;DHT22;17996;51.056;3.656;2023-03-14T13:57:21;5.80;99.90
27544;DHT22;17996;51.056;3.656;2023-03-14T14:00:05;5.70;99.90
27544;DHT22;17996;51.056;3.656;2023-03-14T14:02:36;5.70;99.90
27544;DHT22;17996;51.056;3.656;2023-03-14T14:05:04;5.60;99.90
27544;DHT22;17996;51.056;3.656;2023-03-14T14:07:30;5.50;99.90
27544;DHT22;17996;51.056;3.656;2023-03-14T14:09:56;5.50;99.90
27544;DHT22;17996;51.056;3.656;2023-03-14T14:12:36;5.40;99.90
27544;DHT22;17996;51.056;3.656;2023-03-14T14:15:07;5.50;99.90
27544;DHT22;17996;51.056;3.656;2023-03-14T14:17:43;5.50;99.90
27544;DHT22;17996;51.056;3.656;2023-03-14T14:20:40;5.60;99.90
27544;DHT22;17996;51.056;3.656;2023-03-14T14:23:21;5.70;99.90
27544;DHT22;17996;51.056;3.656;2023-03-14T14:25:52;5.90;99.90
27544;DHT22;17996;51.056;3.656;2023-03-14T14:28:38;6.00;99.90
27544;DHT22;17996;51.056;3.656;2023-03-14T14:31:23;6.10;99.90
27544;DHT22;17996;51.056;3.656;2023-03-14T14:36:36;6.20;99.90
27544;DHT22;17996;51.056;3.656;2023-03-14T14:41:48;6.20;99.90
27544;DHT22;17996;51.056;3.656;2023-03-14T14:44:18;6.20;99.90
27544;DHT22;17996;51.056;3.656;2023-03-14T14:46:46;6.20;99.90
27544;DHT22;17996;51.056;3.656;2023-03-14T14:49:14;6.20;99.90
27544;DHT22;17996;51.056;3.656;2023-03-14T14:51:43;6.10;99.90
27544;DHT22;17996;51.056;3.656;2023-03-14T14:54:15;6.10;99.90
27544;DHT22;17996;51.056;3.656;2023-03-14T14:56:47;6.20;99.90
27544;DHT22;17996;51.056;3.656;2023-03-14T14:59:27;6.20;99.90
27544;DHT22;17996;51.056;3.656;2023-03-14T15:02:01;6.20;99.90
27544;DHT22;17996;51.056;3.656;2023-03-14T15:04:31;6.30;99.90
27544;DHT22;17996;51.056;3.656;2023-03-14T15:06:56;6.40;99.90
27544;DHT22;17996;51.056;3.656;2023-03-14T15:09:22;6.40;99.90
27544;DHT22;17996;51.056;3.656;2023-03-14T15:11:49;6.40;99.90
27544;DHT22;17996;51.056;3.656;2023-03-14T15:14:15;6.50;99.90
27544;DHT22;17996;51.056;3.656;2023-03-14T15:16:40;6.60;99.90
27544;DHT22;17996;51.056;3.656;2023-03-14T15:19:23;6.70;99.90
27544;DHT22;17996;51.056;3.656;2023-03-14T15:21:50;6.80;99.90
27544;DHT22;17996;51.056;3.656;2023-03-14T15:24:16;6.80;99.90
27544;DHT22;17996;51.056;3.656;2023-03-14T15:26:42;6.80;99.90
27544;DHT22;17996;51.056;3.656;2023-03-14T15:29:10;6.90;99.90
27544;DHT22;17996;51.056;3.656;2023-03-14T15:31:38;6.90;99.90
27544;DHT22;17996;51.056;3.656;2023-03-14T15:34:04;7.00;99.90
27544;DHT22;17996;51.056;3.656;2023-03-14T15:36:32;6.90;99.90
27544;DHT22;17996;51.056;3.656;2023-03-14T15:38:58;7.00;99.90
27544;DHT22;17996;51.056;3.656;2023-03-14T15:41:26;7.00;99.90
27544;DHT22;17996;51.056;3.656;2023-03-14T15:43:52;7.00;99.90
27544;DHT22;17996;51.056;3.656;2023-03-14T15:46:18;7.10;99.90
27544;DHT22;17996;51.056;3.656;2023-03-14T15:48:45;7.10;99.90
27544;DHT22;17996;51.056;3.656;2023-03-14T15:51:11;7.10;99.90
27544;DHT22;17996;51.056;3.656;2023-03-14T15:53:37;7.30;99.90
27544;DHT22;17996;51.056;3.656;2023-03-14T15:56:05;7.30;99.90
27544;DHT22;17996;51.056;3.656;2023-03-14T15:58:31;7.30;99.90
27544;DHT22;17996;51.056;3.656;2023-03-14T16:01:00;7.40;99.90
27544;DHT22;17996;51.056;3.656;2023-03-14T16:03:27;7.40;99.90
27544;DHT22;17996;51.056;3.656;2023-03-14T16:05:53;7.30;99.90
27544;DHT22;17996;51.056;3.656;2023-03-14T16:08:19;7.30;99.90
27544;DHT22;17996;51.056;3.656;2023-03-14T16:10:45;7.30;99.90
27544;DHT22;17996;51.056;3.656;2023-03-14T16:13:11;7.30;99.90
27544;DHT22;17996;51.056;3.656;2023-03-14T16:15:37;7.20;99.90
27544;DHT22;17996;51.056;3.656;2023-03-14T16:18:03;7.10;99.90
27544;DHT22;17996;51.056;3.656;2023-03-14T16:20:29;7.00;99.90
27544;DHT22;17996;51.056;3.656;2023-03-14T16:22:54;6.90;99.90
27544;DHT22;17996;51.056;3.656;2023-03-14T16:25:22;6.90;99.90
27544;DHT22;17996;51.056;3.656;2023-03-14T16:27:48;6.90;99.90
27544;DHT22;17996;51.056;3.656;2023-03-14T16:30:14;6.90;99.90
27544;DHT22;17996;51.056;3.656;2023-03-14T16:32:39;7.00;99.90
27544;DHT22;17996;51.056;3.656;2023-03-14T16:35:06;7.00;99.90
27544;DHT22;17996;51.056;3.656;2023-03-14T16:37:32;7.10;99.90
27544;DHT22;17996;51.056;3.656;2023-03-14T16:39:57;7.00;99.90
27544;DHT22;17996;51.056;3.656;2023-03-14T16:42:23;7.00;99.90
27544;DHT22;17996;51.056;3.656;2023-03-14T16:44:49;7.00;99.90
27544;DHT22;17996;51.056;3.656;2023-03-14T16:47:15;7.10;99.90
27544;DHT22;17996;51.056;3.656;2023-03-14T16:49:40;7.10;99.90
27544;DHT22;17996;51.056;3.656;2023-03-14T16:52:07;7.10;99.90